ココス (キーリング) 諸島 の空港の天気 - METARとTAF

ココス島国際空港 ( YPCC / CCK ) - ココス諸島 ココス (キーリング) 諸島
飛行場実況気象(Metar)
観測時間05/18 04:00 CCT (05/17 21:30 UTC)
風向・風速南東 7m/s
視程10km以上
天気現象
全天の4割程度の雲 雲底高度 640m
気温27℃
湿度79%
気圧1010hPa
METARYPCC 172130Z AUTO 14013KT 9999 // SCT021 27/23 Q1010 RF00.0/000.0
過去の天気等 Google飛行場航空写真 Wunderground天気予報

過去48時間のMETAR

飛行場予報(TAF)
発表時間: 5/17 23:33 CCT (5/17 17:03 UTC)
予報対象時間: 18日0時 CCT ~ 19日0時 CCT
風向・風速南東 6m/s
視程10km以上
全天の4割程度の雲 雲底高度 610m
TAF YPCC 171703Z 1718/1818 13012KT 9999 SCT020